sensor_id;sensor_type;location;lat;lon;timestamp;P1;durP1;ratioP1;P2;durP2;ratioP2
63218;SDS011;49320;52.512;13.448;2024-03-02T00:00:04;33.75;;;26.50;;
63218;SDS011;49320;52.512;13.448;2024-03-02T00:02:41;34.70;;;27.27;;
63218;SDS011;49320;52.512;13.448;2024-03-02T00:05:12;31.35;;;26.27;;
63218;SDS011;49320;52.512;13.448;2024-03-02T00:07:46;31.08;;;27.05;;
63218;SDS011;49320;52.512;13.448;2024-03-02T00:10:22;33.25;;;26.83;;
63218;SDS011;49320;52.512;13.448;2024-03-02T00:12:55;31.55;;;26.65;;
63218;SDS011;49320;52.512;13.448;2024-03-02T00:15:40;30.02;;;25.63;;
63218;SDS011;49320;52.512;13.448;2024-03-02T00:18:13;34.78;;;27.77;;
63218;SDS011;49320;52.512;13.448;2024-03-02T00:20:44;35.50;;;27.08;;
63218;SDS011;49320;52.512;13.448;2024-03-02T00:23:14;34.08;;;27.90;;
63218;SDS011;49320;52.512;13.448;2024-03-02T00:25:47;32.22;;;26.95;;
63218;SDS011;49320;52.512;13.448;2024-03-02T00:28:23;32.45;;;26.90;;
63218;SDS011;49320;52.512;13.448;2024-03-02T00:33:44;33.92;;;26.35;;
63218;SDS011;49320;52.512;13.448;2024-03-02T00:36:14;29.50;;;25.23;;
63218;SDS011;49320;52.512;13.448;2024-03-02T00:38:46;32.28;;;25.45;;
63218;SDS011;49320;52.512;13.448;2024-03-02T00:41:17;32.53;;;26.17;;
63218;SDS011;49320;52.512;13.448;2024-03-02T00:43:57;30.77;;;25.73;;
63218;SDS011;49320;52.512;13.448;2024-03-02T00:46:29;30.30;;;26.38;;
63218;SDS011;49320;52.512;13.448;2024-03-02T00:49:00;34.10;;;28.27;;
63218;SDS011;49320;52.512;13.448;2024-03-02T00:51:32;34.15;;;28.65;;
63218;SDS011;49320;52.512;13.448;2024-03-02T00:54:01;34.47;;;28.33;;
63218;SDS011;49320;52.512;13.448;2024-03-02T00:56:32;33.22;;;27.90;;
63218;SDS011;49320;52.512;13.448;2024-03-02T00:59:01;34.22;;;29.70;;
63218;SDS011;49320;52.512;13.448;2024-03-02T01:01:28;36.17;;;29.27;;
63218;SDS011;49320;52.512;13.448;2024-03-02T01:03:56;35.30;;;27.67;;
63218;SDS011;49320;52.512;13.448;2024-03-02T01:06:23;33.72;;;27.85;;
63218;SDS011;49320;52.512;13.448;2024-03-02T01:08:50;31.23;;;27.42;;
63218;SDS011;49320;52.512;13.448;2024-03-02T01:11:19;33.25;;;26.77;;
63218;SDS011;49320;52.512;13.448;2024-03-02T01:13:50;36.20;;;29.75;;
63218;SDS011;49320;52.512;13.448;2024-03-02T01:16:18;33.78;;;28.75;;
63218;SDS011;49320;52.512;13.448;2024-03-02T01:18:44;33.60;;;26.83;;
63218;SDS011;49320;52.512;13.448;2024-03-02T01:21:12;69.25;;;43.45;;
63218;SDS011;49320;52.512;13.448;2024-03-02T01:23:38;114.68;;;64.65;;
63218;SDS011;49320;52.512;13.448;2024-03-02T01:26:05;122.88;;;66.65;;
63218;SDS011;49320;52.512;13.448;2024-03-02T01:28:33;115.35;;;62.47;;
63218;SDS011;49320;52.512;13.448;2024-03-02T01:31:01;142.05;;;75.93;;
63218;SDS011;49320;52.512;13.448;2024-03-02T01:33:28;141.75;;;75.90;;
63218;SDS011;49320;52.512;13.448;2024-03-02T01:35:55;135.40;;;71.95;;
63218;SDS011;49320;52.512;13.448;2024-03-02T01:38:22;129.82;;;68.18;;
63218;SDS011;49320;52.512;13.448;2024-03-02T01:40:49;110.18;;;59.42;;
63218;SDS011;49320;52.512;13.448;2024-03-02T01:43:16;102.13;;;54.65;;
63218;SDS011;49320;52.512;13.448;2024-03-02T01:45:43;83.97;;;48.58;;
63218;SDS011;49320;52.512;13.448;2024-03-02T01:48:10;71.30;;;44.58;;
63218;SDS011;49320;52.512;13.448;2024-03-02T01:50:36;61.60;;;40.90;;
63218;SDS011;49320;52.512;13.448;2024-03-02T01:53:03;57.95;;;37.53;;
63218;SDS011;49320;52.512;13.448;2024-03-02T01:55:30;58.22;;;36.63;;
63218;SDS011;49320;52.512;13.448;2024-03-02T01:57:57;51.40;;;34.60;;
63218;SDS011;49320;52.512;13.448;2024-03-02T02:00:25;56.40;;;37.72;;
63218;SDS011;49320;52.512;13.448;2024-03-02T02:02:53;53.25;;;36.17;;
63218;SDS011;49320;52.512;13.448;2024-03-02T02:05:20;42.05;;;32.75;;
63218;SDS011;49320;52.512;13.448;2024-03-02T02:07:47;44.78;;;32.22;;
63218;SDS011;49320;52.512;13.448;2024-03-02T02:10:15;39.97;;;31.13;;
63218;SDS011;49320;52.512;13.448;2024-03-02T02:12:42;41.67;;;29.63;;
63218;SDS011;49320;52.512;13.448;2024-03-02T02:15:22;39.00;;;29.98;;
63218;SDS011;49320;52.512;13.448;2024-03-02T02:17:54;34.17;;;28.70;;
63218;SDS011;49320;52.512;13.448;2024-03-02T02:20:23;37.92;;;30.60;;
63218;SDS011;49320;52.512;13.448;2024-03-02T02:23:00;34.03;;;29.20;;
63218;SDS011;49320;52.512;13.448;2024-03-02T02:25:28;34.05;;;28.58;;
63218;SDS011;49320;52.512;13.448;2024-03-02T02:27:56;37.92;;;29.67;;
63218;SDS011;49320;52.512;13.448;2024-03-02T02:30:26;32.47;;;28.00;;
63218;SDS011;49320;52.512;13.448;2024-03-02T02:32:56;34.28;;;29.25;;
63218;SDS011;49320;52.512;13.448;2024-03-02T02:35:24;34.03;;;28.60;;
63218;SDS011;49320;52.512;13.448;2024-03-02T02:37:52;34.85;;;30.52;;
63218;SDS011;49320;52.512;13.448;2024-03-02T02:40:21;36.70;;;30.23;;
63218;SDS011;49320;52.512;13.448;2024-03-02T02:42:48;37.63;;;30.58;;
63218;SDS011;49320;52.512;13.448;2024-03-02T02:45:16;35.30;;;29.10;;
63218;SDS011;49320;52.512;13.448;2024-03-02T02:47:43;33.72;;;28.52;;
63218;SDS011;49320;52.512;13.448;2024-03-02T02:50:11;34.83;;;28.42;;
63218;SDS011;49320;52.512;13.448;2024-03-02T02:52:39;36.63;;;31.45;;
63218;SDS011;49320;52.512;13.448;2024-03-02T02:55:08;36.63;;;29.05;;
63218;SDS011;49320;52.512;13.448;2024-03-02T02:57:40;37.20;;;29.42;;
63218;SDS011;49320;52.512;13.448;2024-03-02T03:00:11;34.92;;;28.38;;
63218;SDS011;49320;52.512;13.448;2024-03-02T03:02:42;37.42;;;28.90;;
63218;SDS011;49320;52.512;13.448;2024-03-02T03:05:15;33.75;;;27.20;;
63218;SDS011;49320;52.512;13.448;2024-03-02T03:07:43;36.05;;;28.85;;
63218;SDS011;49320;52.512;13.448;2024-03-02T03:10:11;34.90;;;28.63;;
63218;SDS011;49320;52.512;13.448;2024-03-02T03:12:38;32.05;;;27.33;;
63218;SDS011;49320;52.512;13.448;2024-03-02T03:15:07;32.85;;;27.27;;
63218;SDS011;49320;52.512;13.448;2024-03-02T03:17:35;33.42;;;27.58;;
63218;SDS011;49320;52.512;13.448;2024-03-02T03:20:03;33.00;;;27.75;;
63218;SDS011;49320;52.512;13.448;2024-03-02T03:22:32;31.20;;;26.90;;
63218;SDS011;49320;52.512;13.448;2024-03-02T03:24:59;33.88;;;26.75;;
63218;SDS011;49320;52.512;13.448;2024-03-02T03:27:26;32.45;;;27.08;;
63218;SDS011;49320;52.512;13.448;2024-03-02T03:29:53;31.73;;;27.58;;
63218;SDS011;49320;52.512;13.448;2024-03-02T03:32:20;30.55;;;26.60;;
63218;SDS011;49320;52.512;13.448;2024-03-02T03:34:49;33.00;;;27.70;;
63218;SDS011;49320;52.512;13.448;2024-03-02T03:37:16;32.80;;;25.75;;
63218;SDS011;49320;52.512;13.448;2024-03-02T03:39:43;32.03;;;26.42;;
63218;SDS011;49320;52.512;13.448;2024-03-02T03:42:09;32.70;;;25.27;;
63218;SDS011;49320;52.512;13.448;2024-03-02T03:44:36;32.75;;;26.33;;
63218;SDS011;49320;52.512;13.448;2024-03-02T03:47:03;31.10;;;25.50;;
63218;SDS011;49320;52.512;13.448;2024-03-02T03:49:30;33.63;;;27.48;;
63218;SDS011;49320;52.512;13.448;2024-03-02T03:51:57;35.33;;;27.00;;
63218;SDS011;49320;52.512;13.448;2024-03-02T03:54:23;32.15;;;27.17;;
63218;SDS011;49320;52.512;13.448;2024-03-02T03:56:50;30.40;;;26.30;;
63218;SDS011;49320;52.512;13.448;2024-03-02T03:59:17;31.05;;;25.80;;
63218;SDS011;49320;52.512;13.448;2024-03-02T04:01:44;31.52;;;25.17;;
63218;SDS011;49320;52.512;13.448;2024-03-02T04:04:11;30.58;;;25.25;;
63218;SDS011;49320;52.512;13.448;2024-03-02T04:06:37;28.35;;;24.85;;
63218;SDS011;49320;52.512;13.448;2024-03-02T04:09:04;31.55;;;26.15;;
63218;SDS011;49320;52.512;13.448;2024-03-02T04:11:31;29.83;;;25.27;;
63218;SDS011;49320;52.512;13.448;2024-03-02T04:13:58;30.05;;;25.30;;
63218;SDS011;49320;52.512;13.448;2024-03-02T04:16:25;30.83;;;25.23;;
63218;SDS011;49320;52.512;13.448;2024-03-02T04:18:52;31.98;;;25.08;;
63218;SDS011;49320;52.512;13.448;2024-03-02T04:21:18;28.02;;;23.70;;
63218;SDS011;49320;52.512;13.448;2024-03-02T04:23:45;30.17;;;23.83;;
63218;SDS011;49320;52.512;13.448;2024-03-02T04:26:13;28.98;;;23.42;;
63218;SDS011;49320;52.512;13.448;2024-03-02T04:28:41;27.10;;;23.38;;
63218;SDS011;49320;52.512;13.448;2024-03-02T04:31:07;26.30;;;23.08;;
63218;SDS011;49320;52.512;13.448;2024-03-02T04:33:34;26.63;;;22.92;;
63218;SDS011;49320;52.512;13.448;2024-03-02T04:36:01;27.17;;;24.00;;
63218;SDS011;49320;52.512;13.448;2024-03-02T04:38:28;27.05;;;22.80;;
63218;SDS011;49320;52.512;13.448;2024-03-02T04:40:57;28.90;;;23.48;;
63218;SDS011;49320;52.512;13.448;2024-03-02T04:43:23;26.33;;;22.27;;
63218;SDS011;49320;52.512;13.448;2024-03-02T04:45:50;26.25;;;21.83;;
63218;SDS011;49320;52.512;13.448;2024-03-02T04:48:17;28.83;;;24.08;;
63218;SDS011;49320;52.512;13.448;2024-03-02T04:50:45;28.73;;;23.77;;
63218;SDS011;49320;52.512;13.448;2024-03-02T04:53:12;27.35;;;23.95;;
63218;SDS011;49320;52.512;13.448;2024-03-02T04:55:39;26.15;;;22.38;;
63218;SDS011;49320;52.512;13.448;2024-03-02T04:58:05;27.17;;;22.25;;
63218;SDS011;49320;52.512;13.448;2024-03-02T05:00:33;26.73;;;23.08;;
63218;SDS011;49320;52.512;13.448;2024-03-02T05:03:01;25.65;;;22.92;;
63218;SDS011;49320;52.512;13.448;2024-03-02T05:05:29;26.08;;;22.45;;
63218;SDS011;49320;52.512;13.448;2024-03-02T05:07:55;27.52;;;22.30;;
63218;SDS011;49320;52.512;13.448;2024-03-02T05:10:22;26.85;;;22.85;;
63218;SDS011;49320;52.512;13.448;2024-03-02T05:12:50;27.05;;;23.60;;
63218;SDS011;49320;52.512;13.448;2024-03-02T05:15:23;29.60;;;22.42;;
63218;SDS011;49320;52.512;13.448;2024-03-02T05:17:51;26.52;;;21.38;;
63218;SDS011;49320;52.512;13.448;2024-03-02T05:20:18;25.67;;;21.77;;
63218;SDS011;49320;52.512;13.448;2024-03-02T05:22:45;28.50;;;22.25;;
63218;SDS011;49320;52.512;13.448;2024-03-02T05:25:13;24.58;;;21.67;;
63218;SDS011;49320;52.512;13.448;2024-03-02T05:27:41;25.05;;;22.10;;
63218;SDS011;49320;52.512;13.448;2024-03-02T05:30:08;25.08;;;21.58;;
63218;SDS011;49320;52.512;13.448;2024-03-02T05:32:35;24.17;;;21.30;;
63218;SDS011;49320;52.512;13.448;2024-03-02T05:35:02;26.85;;;22.40;;
63218;SDS011;49320;52.512;13.448;2024-03-02T05:37:31;24.50;;;21.40;;
63218;SDS011;49320;52.512;13.448;2024-03-02T05:39:58;24.67;;;21.27;;
63218;SDS011;49320;52.512;13.448;2024-03-02T05:42:25;23.70;;;21.08;;
63218;SDS011;49320;52.512;13.448;2024-03-02T05:44:54;24.80;;;22.13;;
63218;SDS011;49320;52.512;13.448;2024-03-02T05:47:20;22.75;;;19.20;;
63218;SDS011;49320;52.512;13.448;2024-03-02T05:49:47;24.30;;;21.30;;
63218;SDS011;49320;52.512;13.448;2024-03-02T05:52:14;23.70;;;20.75;;
63218;SDS011;49320;52.512;13.448;2024-03-02T05:54:41;23.85;;;20.00;;
63218;SDS011;49320;52.512;13.448;2024-03-02T05:57:08;27.55;;;21.77;;
63218;SDS011;49320;52.512;13.448;2024-03-02T05:59:52;24.83;;;21.23;;
63218;SDS011;49320;52.512;13.448;2024-03-02T06:02:20;25.52;;;21.33;;
63218;SDS011;49320;52.512;13.448;2024-03-02T06:04:46;28.33;;;23.67;;
63218;SDS011;49320;52.512;13.448;2024-03-02T06:07:13;25.58;;;21.85;;
63218;SDS011;49320;52.512;13.448;2024-03-02T06:09:40;24.70;;;21.95;;
63218;SDS011;49320;52.512;13.448;2024-03-02T06:12:08;26.05;;;22.40;;
63218;SDS011;49320;52.512;13.448;2024-03-02T06:14:35;27.63;;;24.27;;
63218;SDS011;49320;52.512;13.448;2024-03-02T06:17:02;27.88;;;23.02;;
63218;SDS011;49320;52.512;13.448;2024-03-02T06:19:28;28.17;;;24.30;;
63218;SDS011;49320;52.512;13.448;2024-03-02T06:21:55;30.30;;;24.75;;
63218;SDS011;49320;52.512;13.448;2024-03-02T06:24:22;29.73;;;24.30;;
63218;SDS011;49320;52.512;13.448;2024-03-02T06:26:49;29.20;;;23.95;;
63218;SDS011;49320;52.512;13.448;2024-03-02T06:29:16;30.83;;;24.80;;
63218;SDS011;49320;52.512;13.448;2024-03-02T06:31:43;26.80;;;23.98;;
63218;SDS011;49320;52.512;13.448;2024-03-02T06:34:09;30.95;;;25.75;;
63218;SDS011;49320;52.512;13.448;2024-03-02T06:36:36;29.95;;;25.15;;
63218;SDS011;49320;52.512;13.448;2024-03-02T06:39:06;26.50;;;23.10;;
63218;SDS011;49320;52.512;13.448;2024-03-02T06:41:33;31.48;;;25.27;;
63218;SDS011;49320;52.512;13.448;2024-03-02T06:44:00;27.73;;;23.85;;
63218;SDS011;49320;52.512;13.448;2024-03-02T06:46:27;27.17;;;23.02;;
63218;SDS011;49320;52.512;13.448;2024-03-02T06:48:54;28.60;;;24.38;;
63218;SDS011;49320;52.512;13.448;2024-03-02T06:51:21;30.23;;;24.35;;
63218;SDS011;49320;52.512;13.448;2024-03-02T06:53:48;31.48;;;25.33;;
63218;SDS011;49320;52.512;13.448;2024-03-02T06:56:15;30.52;;;23.60;;
63218;SDS011;49320;52.512;13.448;2024-03-02T06:58:41;31.27;;;25.13;;
63218;SDS011;49320;52.512;13.448;2024-03-02T07:01:09;32.05;;;25.77;;
63218;SDS011;49320;52.512;13.448;2024-03-02T07:03:36;30.23;;;25.25;;
63218;SDS011;49320;52.512;13.448;2024-03-02T07:06:03;31.98;;;26.00;;
63218;SDS011;49320;52.512;13.448;2024-03-02T07:08:30;32.70;;;25.70;;
63218;SDS011;49320;52.512;13.448;2024-03-02T07:10:57;32.42;;;26.35;;
63218;SDS011;49320;52.512;13.448;2024-03-02T07:13:24;31.30;;;26.38;;
63218;SDS011;49320;52.512;13.448;2024-03-02T07:15:51;30.83;;;24.80;;
63218;SDS011;49320;52.512;13.448;2024-03-02T07:18:30;29.52;;;25.80;;
63218;SDS011;49320;52.512;13.448;2024-03-02T07:20:57;32.10;;;25.58;;
63218;SDS011;49320;52.512;13.448;2024-03-02T07:23:25;32.72;;;26.92;;
63218;SDS011;49320;52.512;13.448;2024-03-02T07:25:53;35.05;;;26.00;;
63218;SDS011;49320;52.512;13.448;2024-03-02T07:28:26;31.02;;;25.52;;
63218;SDS011;49320;52.512;13.448;2024-03-02T07:31:02;32.78;;;26.38;;
63218;SDS011;49320;52.512;13.448;2024-03-02T07:33:31;32.08;;;25.67;;
63218;SDS011;49320;52.512;13.448;2024-03-02T07:35:58;32.53;;;27.00;;
63218;SDS011;49320;52.512;13.448;2024-03-02T07:38:30;30.02;;;25.35;;
63218;SDS011;49320;52.512;13.448;2024-03-02T07:40:58;29.92;;;26.35;;
63218;SDS011;49320;52.512;13.448;2024-03-02T07:43:26;32.55;;;26.58;;
63218;SDS011;49320;52.512;13.448;2024-03-02T07:45:53;34.08;;;26.48;;
63218;SDS011;49320;52.512;13.448;2024-03-02T07:48:20;31.30;;;27.00;;
63218;SDS011;49320;52.512;13.448;2024-03-02T07:50:47;33.90;;;28.08;;
63218;SDS011;49320;52.512;13.448;2024-03-02T07:53:14;33.88;;;26.65;;
63218;SDS011;49320;52.512;13.448;2024-03-02T07:55:42;35.05;;;27.15;;
63218;SDS011;49320;52.512;13.448;2024-03-02T07:58:09;32.92;;;26.83;;
63218;SDS011;49320;52.512;13.448;2024-03-02T08:00:38;32.17;;;25.85;;
63218;SDS011;49320;52.512;13.448;2024-03-02T08:03:06;32.33;;;27.88;;
63218;SDS011;49320;52.512;13.448;2024-03-02T08:05:37;33.92;;;25.40;;
63218;SDS011;49320;52.512;13.448;2024-03-02T08:08:05;33.90;;;27.60;;
63218;SDS011;49320;52.512;13.448;2024-03-02T08:10:32;36.40;;;28.83;;
63218;SDS011;49320;52.512;13.448;2024-03-02T08:12:59;34.45;;;29.13;;
63218;SDS011;49320;52.512;13.448;2024-03-02T08:15:26;34.15;;;29.42;;
63218;SDS011;49320;52.512;13.448;2024-03-02T08:17:53;32.38;;;28.08;;
63218;SDS011;49320;52.512;13.448;2024-03-02T08:20:20;32.00;;;26.75;;
63218;SDS011;49320;52.512;13.448;2024-03-02T08:22:47;33.15;;;27.55;;
63218;SDS011;49320;52.512;13.448;2024-03-02T08:25:14;32.72;;;26.13;;
63218;SDS011;49320;52.512;13.448;2024-03-02T08:27:42;31.73;;;26.10;;
63218;SDS011;49320;52.512;13.448;2024-03-02T08:30:09;31.80;;;28.08;;
63218;SDS011;49320;52.512;13.448;2024-03-02T08:32:37;35.25;;;27.63;;
63218;SDS011;49320;52.512;13.448;2024-03-02T08:35:04;36.58;;;28.58;;
63218;SDS011;49320;52.512;13.448;2024-03-02T08:37:32;31.33;;;25.52;;
63218;SDS011;49320;52.512;13.448;2024-03-02T08:39:59;31.48;;;24.92;;
63218;SDS011;49320;52.512;13.448;2024-03-02T08:42:26;32.80;;;25.25;;
63218;SDS011;49320;52.512;13.448;2024-03-02T08:44:53;29.38;;;25.13;;
63218;SDS011;49320;52.512;13.448;2024-03-02T08:47:20;33.42;;;26.50;;
63218;SDS011;49320;52.512;13.448;2024-03-02T08:49:46;32.60;;;25.85;;
63218;SDS011;49320;52.512;13.448;2024-03-02T08:52:13;32.88;;;24.90;;
63218;SDS011;49320;52.512;13.448;2024-03-02T08:54:40;31.40;;;26.83;;
63218;SDS011;49320;52.512;13.448;2024-03-02T08:57:07;30.73;;;25.20;;
63218;SDS011;49320;52.512;13.448;2024-03-02T08:59:34;28.85;;;25.40;;
63218;SDS011;49320;52.512;13.448;2024-03-02T09:02:02;30.38;;;24.52;;
63218;SDS011;49320;52.512;13.448;2024-03-02T09:04:29;32.45;;;26.05;;
63218;SDS011;49320;52.512;13.448;2024-03-02T09:07:00;35.20;;;28.33;;
63218;SDS011;49320;52.512;13.448;2024-03-02T09:09:27;35.20;;;28.13;;
63218;SDS011;49320;52.512;13.448;2024-03-02T09:11:54;32.13;;;28.45;;
63218;SDS011;49320;52.512;13.448;2024-03-02T09:14:23;33.45;;;29.15;;
63218;SDS011;49320;52.512;13.448;2024-03-02T09:16:50;35.70;;;28.83;;
63218;SDS011;49320;52.512;13.448;2024-03-02T09:19:17;33.33;;;28.35;;
63218;SDS011;49320;52.512;13.448;2024-03-02T09:21:45;31.92;;;26.27;;
63218;SDS011;49320;52.512;13.448;2024-03-02T09:24:11;34.75;;;27.70;;
63218;SDS011;49320;52.512;13.448;2024-03-02T09:26:43;34.17;;;25.95;;
63218;SDS011;49320;52.512;13.448;2024-03-02T09:29:10;32.22;;;25.67;;
63218;SDS011;49320;52.512;13.448;2024-03-02T09:31:39;32.65;;;25.83;;
63218;SDS011;49320;52.512;13.448;2024-03-02T09:34:09;30.23;;;23.98;;
63218;SDS011;49320;52.512;13.448;2024-03-02T09:36:36;31.05;;;25.95;;
63218;SDS011;49320;52.512;13.448;2024-03-02T09:39:03;30.23;;;24.55;;
63218;SDS011;49320;52.512;13.448;2024-03-02T09:41:30;27.55;;;23.02;;
63218;SDS011;49320;52.512;13.448;2024-03-02T09:43:59;28.23;;;24.33;;
63218;SDS011;49320;52.512;13.448;2024-03-02T09:46:26;28.65;;;23.63;;
63218;SDS011;49320;52.512;13.448;2024-03-02T09:48:53;31.27;;;23.15;;
63218;SDS011;49320;52.512;13.448;2024-03-02T09:51:21;28.95;;;24.00;;
63218;SDS011;49320;52.512;13.448;2024-03-02T09:53:49;28.00;;;24.55;;
63218;SDS011;49320;52.512;13.448;2024-03-02T09:56:16;30.38;;;25.20;;
63218;SDS011;49320;52.512;13.448;2024-03-02T09:58:44;31.55;;;25.08;;
63218;SDS011;49320;52.512;13.448;2024-03-02T10:01:11;28.73;;;24.15;;
63218;SDS011;49320;52.512;13.448;2024-03-02T10:03:38;30.10;;;25.15;;
63218;SDS011;49320;52.512;13.448;2024-03-02T10:06:24;28.67;;;23.92;;
63218;SDS011;49320;52.512;13.448;2024-03-02T10:08:54;27.33;;;22.70;;
63218;SDS011;49320;52.512;13.448;2024-03-02T10:11:25;26.27;;;22.65;;
63218;SDS011;49320;52.512;13.448;2024-03-02T10:14:03;28.30;;;23.63;;
63218;SDS011;49320;52.512;13.448;2024-03-02T10:16:39;26.33;;;23.25;;
63218;SDS011;49320;52.512;13.448;2024-03-02T10:19:15;28.20;;;23.48;;
63218;SDS011;49320;52.512;13.448;2024-03-02T10:21:47;28.75;;;23.83;;
63218;SDS011;49320;52.512;13.448;2024-03-02T10:24:20;26.75;;;21.63;;
63218;SDS011;49320;52.512;13.448;2024-03-02T10:26:48;26.55;;;22.10;;
63218;SDS011;49320;52.512;13.448;2024-03-02T10:29:16;27.30;;;22.15;;
63218;SDS011;49320;52.512;13.448;2024-03-02T10:31:44;25.20;;;21.08;;
63218;SDS011;49320;52.512;13.448;2024-03-02T10:34:12;28.73;;;21.45;;
63218;SDS011;49320;52.512;13.448;2024-03-02T10:36:40;23.73;;;19.42;;
63218;SDS011;49320;52.512;13.448;2024-03-02T10:39:09;22.13;;;19.13;;
63218;SDS011;49320;52.512;13.448;2024-03-02T10:41:37;22.33;;;19.00;;
63218;SDS011;49320;52.512;13.448;2024-03-02T10:44:05;23.55;;;18.85;;
63218;SDS011;49320;52.512;13.448;2024-03-02T10:46:35;22.50;;;18.52;;
63218;SDS011;49320;52.512;13.448;2024-03-02T10:49:04;22.05;;;18.17;;
63218;SDS011;49320;52.512;13.448;2024-03-02T10:51:34;21.27;;;17.75;;
63218;SDS011;49320;52.512;13.448;2024-03-02T10:54:02;19.60;;;16.98;;
63218;SDS011;49320;52.512;13.448;2024-03-02T10:56:31;19.73;;;17.27;;
63218;SDS011;49320;52.512;13.448;2024-03-02T10:59:16;21.92;;;16.05;;
63218;SDS011;49320;52.512;13.448;2024-03-02T11:01:57;18.83;;;16.50;;
63218;SDS011;49320;52.512;13.448;2024-03-02T11:04:31;19.40;;;15.68;;
63218;SDS011;49320;52.512;13.448;2024-03-02T11:07:06;19.73;;;16.85;;
63218;SDS011;49320;52.512;13.448;2024-03-02T11:09:40;20.92;;;17.05;;
63218;SDS011;49320;52.512;13.448;2024-03-02T11:14:54;20.05;;;16.60;;
63218;SDS011;49320;52.512;13.448;2024-03-02T11:17:22;18.98;;;15.43;;
63218;SDS011;49320;52.512;13.448;2024-03-02T11:19:51;18.50;;;15.57;;
63218;SDS011;49320;52.512;13.448;2024-03-02T11:22:18;17.95;;;15.07;;
63218;SDS011;49320;52.512;13.448;2024-03-02T11:24:50;20.27;;;15.80;;
63218;SDS011;49320;52.512;13.448;2024-03-02T11:30:54;19.08;;;14.95;;
63218;SDS011;49320;52.512;13.448;2024-03-02T11:33:04;16.55;;;14.63;;
63218;SDS011;49320;52.512;13.448;2024-03-02T11:35:34;17.45;;;15.60;;
63218;SDS011;49320;52.512;13.448;2024-03-02T11:38:03;18.17;;;14.95;;
63218;SDS011;49320;52.512;13.448;2024-03-02T11:40:32;17.15;;;14.57;;
63218;SDS011;49320;52.512;13.448;2024-03-02T11:42:59;20.80;;;16.48;;
63218;SDS011;49320;52.512;13.448;2024-03-02T11:45:27;20.50;;;16.13;;
63218;SDS011;49320;52.512;13.448;2024-03-02T11:47:56;19.75;;;15.90;;
63218;SDS011;49320;52.512;13.448;2024-03-02T11:50:33;20.33;;;15.50;;
63218;SDS011;49320;52.512;13.448;2024-03-02T11:53:15;18.88;;;15.57;;
63218;SDS011;49320;52.512;13.448;2024-03-02T11:55:44;17.58;;;15.57;;
63218;SDS011;49320;52.512;13.448;2024-03-02T11:58:13;18.08;;;15.57;;
63218;SDS011;49320;52.512;13.448;2024-03-02T12:03:17;16.65;;;13.23;;
63218;SDS011;49320;52.512;13.448;2024-03-02T12:05:44;16.65;;;14.60;;
63218;SDS011;49320;52.512;13.448;2024-03-02T12:08:16;17.02;;;13.27;;
63218;SDS011;49320;52.512;13.448;2024-03-02T12:10:44;17.45;;;14.45;;
63218;SDS011;49320;52.512;13.448;2024-03-02T12:13:29;16.90;;;13.80;;
63218;SDS011;49320;52.512;13.448;2024-03-02T12:15:57;16.85;;;13.93;;
63218;SDS011;49320;52.512;13.448;2024-03-02T12:18:24;17.75;;;14.77;;
63218;SDS011;49320;52.512;13.448;2024-03-02T12:20:52;19.70;;;15.65;;
63218;SDS011;49320;52.512;13.448;2024-03-02T12:23:22;18.13;;;14.70;;
63218;SDS011;49320;52.512;13.448;2024-03-02T12:25:49;17.75;;;14.02;;
63218;SDS011;49320;52.512;13.448;2024-03-02T12:28:16;16.48;;;13.75;;
63218;SDS011;49320;52.512;13.448;2024-03-02T12:30:44;15.60;;;12.60;;
63218;SDS011;49320;52.512;13.448;2024-03-02T12:33:11;16.27;;;13.50;;
63218;SDS011;49320;52.512;13.448;2024-03-02T12:35:38;15.63;;;13.07;;
63218;SDS011;49320;52.512;13.448;2024-03-02T12:38:07;16.17;;;13.85;;
63218;SDS011;49320;52.512;13.448;2024-03-02T12:40:34;15.43;;;12.73;;
63218;SDS011;49320;52.512;13.448;2024-03-02T12:43:01;15.98;;;12.85;;
63218;SDS011;49320;52.512;13.448;2024-03-02T12:45:28;15.20;;;13.18;;
63218;SDS011;49320;52.512;13.448;2024-03-02T12:47:55;18.13;;;13.13;;
63218;SDS011;49320;52.512;13.448;2024-03-02T12:50:21;15.88;;;14.10;;
63218;SDS011;49320;52.512;13.448;2024-03-02T12:52:52;16.70;;;13.43;;
63218;SDS011;49320;52.512;13.448;2024-03-02T12:55:20;16.23;;;13.70;;
63218;SDS011;49320;52.512;13.448;2024-03-02T12:57:52;18.52;;;14.48;;
63218;SDS011;49320;52.512;13.448;2024-03-02T13:00:20;17.75;;;12.50;;
63218;SDS011;49320;52.512;13.448;2024-03-02T13:02:49;13.82;;;11.43;;
63218;SDS011;49320;52.512;13.448;2024-03-02T13:05:18;13.82;;;11.50;;
63218;SDS011;49320;52.512;13.448;2024-03-02T13:07:50;15.48;;;13.32;;
63218;SDS011;49320;52.512;13.448;2024-03-02T13:10:17;14.52;;;11.60;;
63218;SDS011;49320;52.512;13.448;2024-03-02T13:12:45;13.13;;;11.45;;
63218;SDS011;49320;52.512;13.448;2024-03-02T13:15:12;14.95;;;11.90;;
63218;SDS011;49320;52.512;13.448;2024-03-02T13:17:44;16.15;;;11.82;;
63218;SDS011;49320;52.512;13.448;2024-03-02T13:20:15;12.55;;;10.75;;
63218;SDS011;49320;52.512;13.448;2024-03-02T13:22:44;14.45;;;11.75;;
63218;SDS011;49320;52.512;13.448;2024-03-02T13:25:11;13.60;;;12.20;;
63218;SDS011;49320;52.512;13.448;2024-03-02T13:27:38;15.38;;;12.18;;
63218;SDS011;49320;52.512;13.448;2024-03-02T13:30:06;14.80;;;11.88;;
63218;SDS011;49320;52.512;13.448;2024-03-02T13:32:35;13.18;;;11.00;;
63218;SDS011;49320;52.512;13.448;2024-03-02T13:35:02;13.27;;;11.07;;
63218;SDS011;49320;52.512;13.448;2024-03-02T13:37:30;15.52;;;12.63;;
63218;SDS011;49320;52.512;13.448;2024-03-02T13:39:56;13.73;;;11.45;;
63218;SDS011;49320;52.512;13.448;2024-03-02T13:42:23;14.85;;;11.13;;
63218;SDS011;49320;52.512;13.448;2024-03-02T13:44:50;15.80;;;11.38;;
63218;SDS011;49320;52.512;13.448;2024-03-02T13:47:18;12.88;;;10.80;;
63218;SDS011;49320;52.512;13.448;2024-03-02T13:49:45;13.43;;;11.18;;
63218;SDS011;49320;52.512;13.448;2024-03-02T13:52:13;14.10;;;10.75;;
63218;SDS011;49320;52.512;13.448;2024-03-02T13:54:41;12.95;;;10.00;;
63218;SDS011;49320;52.512;13.448;2024-03-02T13:57:10;12.50;;;10.43;;
63218;SDS011;49320;52.512;13.448;2024-03-02T13:59:38;13.27;;;10.90;;
63218;SDS011;49320;52.512;13.448;2024-03-02T14:02:06;13.35;;;11.95;;
63218;SDS011;49320;52.512;13.448;2024-03-02T14:04:34;16.33;;;12.80;;
63218;SDS011;49320;52.512;13.448;2024-03-02T14:07:02;13.00;;;11.57;;
63218;SDS011;49320;52.512;13.448;2024-03-02T14:09:29;13.55;;;11.40;;
63218;SDS011;49320;52.512;13.448;2024-03-02T14:11:57;13.40;;;11.10;;
63218;SDS011;49320;52.512;13.448;2024-03-02T14:14:23;12.38;;;10.20;;
63218;SDS011;49320;52.512;13.448;2024-03-02T14:16:51;12.43;;;10.30;;
63218;SDS011;49320;52.512;13.448;2024-03-02T14:19:20;11.45;;;9.45;;
63218;SDS011;49320;52.512;13.448;2024-03-02T14:21:48;10.18;;;9.07;;
63218;SDS011;49320;52.512;13.448;2024-03-02T14:24:15;10.98;;;9.43;;
63218;SDS011;49320;52.512;13.448;2024-03-02T14:26:41;11.45;;;9.98;;